sensor_id;sensor_type;location;lat;lon;timestamp;P1;durP1;ratioP1;P2;durP2;ratioP2
33403;SDS011;19751;40.274;18.268;2023-05-10T00:01:30;13.30;;;8.15;;
33403;SDS011;19751;40.274;18.268;2023-05-10T00:03:55;10.23;;;6.95;;
33403;SDS011;19751;40.274;18.268;2023-05-10T00:06:21;11.43;;;7.25;;
33403;SDS011;19751;40.274;18.268;2023-05-10T00:08:47;12.10;;;7.65;;
33403;SDS011;19751;40.274;18.268;2023-05-10T00:11:12;9.82;;;6.55;;
33403;SDS011;19751;40.274;18.268;2023-05-10T00:13:37;10.85;;;7.60;;
33403;SDS011;19751;40.274;18.268;2023-05-10T00:16:03;9.90;;;6.90;;
33403;SDS011;19751;40.274;18.268;2023-05-10T00:18:29;13.27;;;8.20;;
33403;SDS011;19751;40.274;18.268;2023-05-10T00:20:54;9.40;;;7.18;;
33403;SDS011;19751;40.274;18.268;2023-05-10T00:23:20;8.88;;;7.25;;
33403;SDS011;19751;40.274;18.268;2023-05-10T00:25:45;11.13;;;7.43;;
33403;SDS011;19751;40.274;18.268;2023-05-10T00:28:10;8.73;;;6.70;;
33403;SDS011;19751;40.274;18.268;2023-05-10T00:30:36;9.90;;;5.90;;
33403;SDS011;19751;40.274;18.268;2023-05-10T00:33:01;8.88;;;6.70;;
33403;SDS011;19751;40.274;18.268;2023-05-10T00:35:27;8.45;;;6.57;;
33403;SDS011;19751;40.274;18.268;2023-05-10T00:37:53;13.75;;;7.28;;
33403;SDS011;19751;40.274;18.268;2023-05-10T00:40:19;10.50;;;7.03;;
33403;SDS011;19751;40.274;18.268;2023-05-10T00:42:44;14.27;;;8.45;;
33403;SDS011;19751;40.274;18.268;2023-05-10T00:45:09;11.27;;;8.50;;
33403;SDS011;19751;40.274;18.268;2023-05-10T00:47:36;12.20;;;7.80;;
33403;SDS011;19751;40.274;18.268;2023-05-10T00:50:02;9.30;;;7.20;;
33403;SDS011;19751;40.274;18.268;2023-05-10T00:52:28;11.57;;;7.80;;
33403;SDS011;19751;40.274;18.268;2023-05-10T00:54:54;13.73;;;9.18;;
33403;SDS011;19751;40.274;18.268;2023-05-10T00:57:20;8.73;;;6.25;;
33403;SDS011;19751;40.274;18.268;2023-05-10T00:59:46;10.75;;;6.80;;
33403;SDS011;19751;40.274;18.268;2023-05-10T01:02:12;10.98;;;7.70;;
33403;SDS011;19751;40.274;18.268;2023-05-10T01:04:38;13.85;;;8.73;;
33403;SDS011;19751;40.274;18.268;2023-05-10T01:07:04;7.75;;;6.32;;
33403;SDS011;19751;40.274;18.268;2023-05-10T01:09:30;9.32;;;6.88;;
33403;SDS011;19751;40.274;18.268;2023-05-10T01:11:56;8.65;;;7.22;;
33403;SDS011;19751;40.274;18.268;2023-05-10T01:14:21;10.02;;;7.15;;
33403;SDS011;19751;40.274;18.268;2023-05-10T01:16:48;10.60;;;7.30;;
33403;SDS011;19751;40.274;18.268;2023-05-10T01:19:24;9.75;;;8.02;;
33403;SDS011;19751;40.274;18.268;2023-05-10T01:27:43;13.02;;;8.80;;
33403;SDS011;19751;40.274;18.268;2023-05-10T01:36:26;8.07;;;6.72;;
33403;SDS011;19751;40.274;18.268;2023-05-10T01:39:02;10.13;;;6.97;;
33403;SDS011;19751;40.274;18.268;2023-05-10T01:41:47;11.18;;;7.72;;
33403;SDS011;19751;40.274;18.268;2023-05-10T01:46:48;13.18;;;7.40;;
33403;SDS011;19751;40.274;18.268;2023-05-10T01:49:24;7.72;;;6.43;;
33403;SDS011;19751;40.274;18.268;2023-05-10T01:51:53;10.73;;;7.57;;
33403;SDS011;19751;40.274;18.268;2023-05-10T01:54:24;10.15;;;7.22;;
33403;SDS011;19751;40.274;18.268;2023-05-10T01:56:55;9.32;;;7.30;;
33403;SDS011;19751;40.274;18.268;2023-05-10T01:59:26;13.43;;;7.95;;
33403;SDS011;19751;40.274;18.268;2023-05-10T02:01:54;13.77;;;8.45;;
33403;SDS011;19751;40.274;18.268;2023-05-10T02:04:24;10.73;;;8.18;;
33403;SDS011;19751;40.274;18.268;2023-05-10T02:06:51;10.45;;;9.15;;
33403;SDS011;19751;40.274;18.268;2023-05-10T02:09:18;11.00;;;9.27;;
33403;SDS011;19751;40.274;18.268;2023-05-10T02:11:45;12.27;;;8.93;;
33403;SDS011;19751;40.274;18.268;2023-05-10T02:14:14;12.88;;;9.10;;
33403;SDS011;19751;40.274;18.268;2023-05-10T02:16:41;14.68;;;9.35;;
33403;SDS011;19751;40.274;18.268;2023-05-10T02:19:08;13.20;;;8.63;;
33403;SDS011;19751;40.274;18.268;2023-05-10T02:21:37;10.93;;;9.32;;
33403;SDS011;19751;40.274;18.268;2023-05-10T02:24:05;9.30;;;8.25;;
33403;SDS011;19751;40.274;18.268;2023-05-10T02:26:32;12.02;;;8.43;;
33403;SDS011;19751;40.274;18.268;2023-05-10T02:29:03;9.25;;;7.60;;
33403;SDS011;19751;40.274;18.268;2023-05-10T02:31:31;12.48;;;9.85;;
33403;SDS011;19751;40.274;18.268;2023-05-10T02:33:58;16.58;;;11.88;;
33403;SDS011;19751;40.274;18.268;2023-05-10T02:36:26;15.10;;;11.57;;
33403;SDS011;19751;40.274;18.268;2023-05-10T02:38:52;16.05;;;12.18;;
33403;SDS011;19751;40.274;18.268;2023-05-10T02:41:19;14.18;;;10.32;;
33403;SDS011;19751;40.274;18.268;2023-05-10T02:43:49;16.15;;;11.82;;
33403;SDS011;19751;40.274;18.268;2023-05-10T02:46:16;17.13;;;11.88;;
33403;SDS011;19751;40.274;18.268;2023-05-10T02:48:42;17.38;;;11.05;;
33403;SDS011;19751;40.274;18.268;2023-05-10T02:51:08;16.08;;;9.07;;
33403;SDS011;19751;40.274;18.268;2023-05-10T02:53:38;14.55;;;10.10;;
33403;SDS011;19751;40.274;18.268;2023-05-10T02:56:11;14.98;;;9.95;;
33403;SDS011;19751;40.274;18.268;2023-05-10T02:58:45;13.43;;;8.77;;
33403;SDS011;19751;40.274;18.268;2023-05-10T03:01:11;12.57;;;8.73;;
33403;SDS011;19751;40.274;18.268;2023-05-10T03:03:36;11.95;;;9.20;;
33403;SDS011;19751;40.274;18.268;2023-05-10T03:06:02;14.73;;;9.85;;
33403;SDS011;19751;40.274;18.268;2023-05-10T03:08:28;17.05;;;10.65;;
33403;SDS011;19751;40.274;18.268;2023-05-10T03:11:16;14.57;;;9.95;;
33403;SDS011;19751;40.274;18.268;2023-05-10T03:14:12;14.07;;;8.85;;
33403;SDS011;19751;40.274;18.268;2023-05-10T03:20:35;18.15;;;9.65;;
33403;SDS011;19751;40.274;18.268;2023-05-10T03:26:01;12.23;;;10.07;;
33403;SDS011;19751;40.274;18.268;2023-05-10T03:28:29;15.55;;;9.02;;
33403;SDS011;19751;40.274;18.268;2023-05-10T03:30:56;12.88;;;9.13;;
33403;SDS011;19751;40.274;18.268;2023-05-10T03:33:22;13.73;;;11.18;;
33403;SDS011;19751;40.274;18.268;2023-05-10T03:35:48;14.00;;;9.55;;
33403;SDS011;19751;40.274;18.268;2023-05-10T03:38:13;12.10;;;8.75;;
33403;SDS011;19751;40.274;18.268;2023-05-10T03:40:39;15.43;;;10.55;;
33403;SDS011;19751;40.274;18.268;2023-05-10T03:43:04;11.02;;;9.75;;
33403;SDS011;19751;40.274;18.268;2023-05-10T03:45:30;12.27;;;9.13;;
33403;SDS011;19751;40.274;18.268;2023-05-10T03:47:56;17.48;;;10.70;;
33403;SDS011;19751;40.274;18.268;2023-05-10T03:50:25;12.48;;;8.80;;
33403;SDS011;19751;40.274;18.268;2023-05-10T03:52:51;14.70;;;10.18;;
33403;SDS011;19751;40.274;18.268;2023-05-10T03:55:16;10.63;;;9.20;;
33403;SDS011;19751;40.274;18.268;2023-05-10T03:57:42;21.67;;;10.48;;
33403;SDS011;19751;40.274;18.268;2023-05-10T04:00:08;14.63;;;10.98;;
33403;SDS011;19751;40.274;18.268;2023-05-10T04:02:34;16.10;;;10.82;;
33403;SDS011;19751;40.274;18.268;2023-05-10T04:05:00;14.93;;;9.75;;
33403;SDS011;19751;40.274;18.268;2023-05-10T04:07:26;13.00;;;9.82;;
33403;SDS011;19751;40.274;18.268;2023-05-10T04:09:52;12.65;;;8.75;;
33403;SDS011;19751;40.274;18.268;2023-05-10T04:12:17;12.00;;;8.98;;
33403;SDS011;19751;40.274;18.268;2023-05-10T04:14:43;13.23;;;8.80;;
33403;SDS011;19751;40.274;18.268;2023-05-10T04:17:08;12.65;;;10.18;;
33403;SDS011;19751;40.274;18.268;2023-05-10T04:19:34;14.55;;;8.38;;
33403;SDS011;19751;40.274;18.268;2023-05-10T04:21:59;15.38;;;9.18;;
33403;SDS011;19751;40.274;18.268;2023-05-10T04:24:25;11.57;;;7.63;;
33403;SDS011;19751;40.274;18.268;2023-05-10T04:26:50;10.27;;;7.95;;
33403;SDS011;19751;40.274;18.268;2023-05-10T04:29:16;10.65;;;7.28;;
33403;SDS011;19751;40.274;18.268;2023-05-10T04:31:42;9.05;;;6.85;;
33403;SDS011;19751;40.274;18.268;2023-05-10T04:34:07;9.15;;;7.00;;
33403;SDS011;19751;40.274;18.268;2023-05-10T04:36:33;7.05;;;6.35;;
33403;SDS011;19751;40.274;18.268;2023-05-10T04:39:00;10.48;;;7.53;;
33403;SDS011;19751;40.274;18.268;2023-05-10T04:41:28;7.68;;;5.38;;
33403;SDS011;19751;40.274;18.268;2023-05-10T04:43:54;8.57;;;5.22;;
33403;SDS011;19751;40.274;18.268;2023-05-10T04:46:19;7.45;;;6.30;;
33403;SDS011;19751;40.274;18.268;2023-05-10T04:48:45;6.82;;;6.05;;
33403;SDS011;19751;40.274;18.268;2023-05-10T04:51:10;14.00;;;6.45;;
33403;SDS011;19751;40.274;18.268;2023-05-10T04:53:36;6.38;;;5.68;;
33403;SDS011;19751;40.274;18.268;2023-05-10T04:56:02;7.05;;;5.40;;
33403;SDS011;19751;40.274;18.268;2023-05-10T04:58:27;6.68;;;5.55;;
33403;SDS011;19751;40.274;18.268;2023-05-10T05:00:53;7.57;;;5.35;;
33403;SDS011;19751;40.274;18.268;2023-05-10T05:03:18;6.85;;;6.15;;
33403;SDS011;19751;40.274;18.268;2023-05-10T05:05:44;5.70;;;4.93;;
33403;SDS011;19751;40.274;18.268;2023-05-10T05:08:09;13.63;;;5.85;;
33403;SDS011;19751;40.274;18.268;2023-05-10T05:10:35;9.93;;;6.53;;
33403;SDS011;19751;40.274;18.268;2023-05-10T05:13:00;6.68;;;5.05;;
33403;SDS011;19751;40.274;18.268;2023-05-10T05:15:26;6.45;;;4.68;;
33403;SDS011;19751;40.274;18.268;2023-05-10T05:17:52;6.68;;;5.68;;
33403;SDS011;19751;40.274;18.268;2023-05-10T05:20:17;6.75;;;5.35;;
33403;SDS011;19751;40.274;18.268;2023-05-10T05:22:44;5.70;;;4.57;;
33403;SDS011;19751;40.274;18.268;2023-05-10T05:25:09;7.50;;;4.82;;
33403;SDS011;19751;40.274;18.268;2023-05-10T05:27:36;8.73;;;5.10;;
33403;SDS011;19751;40.274;18.268;2023-05-10T05:30:02;4.70;;;4.03;;
33403;SDS011;19751;40.274;18.268;2023-05-10T05:32:28;6.00;;;4.18;;
33403;SDS011;19751;40.274;18.268;2023-05-10T05:34:53;5.45;;;4.20;;
33403;SDS011;19751;40.274;18.268;2023-05-10T05:37:19;4.63;;;4.20;;
33403;SDS011;19751;40.274;18.268;2023-05-10T05:39:46;4.28;;;3.88;;
33403;SDS011;19751;40.274;18.268;2023-05-10T05:42:12;7.35;;;4.60;;
33403;SDS011;19751;40.274;18.268;2023-05-10T05:44:39;6.55;;;4.60;;
33403;SDS011;19751;40.274;18.268;2023-05-10T05:47:05;5.22;;;4.65;;
33403;SDS011;19751;40.274;18.268;2023-05-10T05:49:31;7.53;;;4.47;;
33403;SDS011;19751;40.274;18.268;2023-05-10T05:52:00;6.60;;;4.40;;
33403;SDS011;19751;40.274;18.268;2023-05-10T05:54:27;8.63;;;4.72;;
33403;SDS011;19751;40.274;18.268;2023-05-10T05:56:56;4.93;;;4.43;;
33403;SDS011;19751;40.274;18.268;2023-05-10T05:59:23;11.75;;;4.70;;
33403;SDS011;19751;40.274;18.268;2023-05-10T06:01:48;5.65;;;4.13;;
33403;SDS011;19751;40.274;18.268;2023-05-10T06:04:15;5.75;;;3.80;;
33403;SDS011;19751;40.274;18.268;2023-05-10T06:06:40;4.20;;;3.80;;
33403;SDS011;19751;40.274;18.268;2023-05-10T06:09:07;5.22;;;4.43;;
33403;SDS011;19751;40.274;18.268;2023-05-10T06:11:33;6.38;;;5.43;;
33403;SDS011;19751;40.274;18.268;2023-05-10T06:13:59;8.35;;;5.78;;
33403;SDS011;19751;40.274;18.268;2023-05-10T06:16:25;5.47;;;4.97;;
33403;SDS011;19751;40.274;18.268;2023-05-10T06:18:51;8.98;;;4.43;;
33403;SDS011;19751;40.274;18.268;2023-05-10T06:21:17;9.10;;;5.57;;
33403;SDS011;19751;40.274;18.268;2023-05-10T06:23:42;7.68;;;4.82;;
33403;SDS011;19751;40.274;18.268;2023-05-10T06:26:08;8.00;;;5.53;;
33403;SDS011;19751;40.274;18.268;2023-05-10T06:28:34;7.28;;;5.47;;
33403;SDS011;19751;40.274;18.268;2023-05-10T06:31:02;11.10;;;5.47;;
33403;SDS011;19751;40.274;18.268;2023-05-10T06:33:28;7.85;;;4.03;;
33403;SDS011;19751;40.274;18.268;2023-05-10T06:35:53;14.15;;;6.93;;
33403;SDS011;19751;40.274;18.268;2023-05-10T06:38:19;7.50;;;5.00;;
33403;SDS011;19751;40.274;18.268;2023-05-10T06:40:45;7.90;;;4.60;;
33403;SDS011;19751;40.274;18.268;2023-05-10T06:43:10;6.07;;;4.40;;
33403;SDS011;19751;40.274;18.268;2023-05-10T06:45:36;7.63;;;4.80;;
33403;SDS011;19751;40.274;18.268;2023-05-10T06:48:02;6.63;;;3.83;;
33403;SDS011;19751;40.274;18.268;2023-05-10T06:50:27;9.80;;;4.60;;
33403;SDS011;19751;40.274;18.268;2023-05-10T06:52:53;7.07;;;4.82;;
33403;SDS011;19751;40.274;18.268;2023-05-10T06:55:19;6.10;;;4.55;;
33403;SDS011;19751;40.274;18.268;2023-05-10T06:57:44;8.65;;;4.70;;
33403;SDS011;19751;40.274;18.268;2023-05-10T07:00:10;7.93;;;4.15;;
33403;SDS011;19751;40.274;18.268;2023-05-10T07:02:36;10.07;;;4.57;;
33403;SDS011;19751;40.274;18.268;2023-05-10T07:05:01;8.75;;;4.53;;
33403;SDS011;19751;40.274;18.268;2023-05-10T07:07:27;12.38;;;4.15;;
33403;SDS011;19751;40.274;18.268;2023-05-10T07:09:53;42.42;;;5.47;;
33403;SDS011;19751;40.274;18.268;2023-05-10T07:12:21;6.90;;;4.53;;
33403;SDS011;19751;40.274;18.268;2023-05-10T07:14:47;10.27;;;4.57;;
33403;SDS011;19751;40.274;18.268;2023-05-10T07:17:12;5.97;;;3.65;;
33403;SDS011;19751;40.274;18.268;2023-05-10T07:19:37;7.15;;;4.72;;
33403;SDS011;19751;40.274;18.268;2023-05-10T07:22:03;8.07;;;4.28;;
33403;SDS011;19751;40.274;18.268;2023-05-10T07:24:28;8.73;;;4.50;;
33403;SDS011;19751;40.274;18.268;2023-05-10T07:26:54;10.88;;;4.05;;
33403;SDS011;19751;40.274;18.268;2023-05-10T07:29:20;5.78;;;4.15;;
33403;SDS011;19751;40.274;18.268;2023-05-10T07:31:45;10.93;;;3.78;;
33403;SDS011;19751;40.274;18.268;2023-05-10T07:34:11;4.45;;;3.50;;
33403;SDS011;19751;40.274;18.268;2023-05-10T07:36:36;3.88;;;3.30;;
33403;SDS011;19751;40.274;18.268;2023-05-10T07:39:02;5.45;;;3.58;;
33403;SDS011;19751;40.274;18.268;2023-05-10T07:41:28;5.53;;;3.70;;
33403;SDS011;19751;40.274;18.268;2023-05-10T07:43:53;8.02;;;3.53;;
33403;SDS011;19751;40.274;18.268;2023-05-10T07:46:19;9.30;;;4.65;;
33403;SDS011;19751;40.274;18.268;2023-05-10T07:48:44;9.10;;;4.20;;
33403;SDS011;19751;40.274;18.268;2023-05-10T07:51:10;3.95;;;3.60;;
33403;SDS011;19751;40.274;18.268;2023-05-10T07:53:36;4.75;;;4.22;;
33403;SDS011;19751;40.274;18.268;2023-05-10T07:56:20;4.55;;;3.70;;
33403;SDS011;19751;40.274;18.268;2023-05-10T07:58:50;5.10;;;3.53;;
33403;SDS011;19751;40.274;18.268;2023-05-10T08:01:16;6.40;;;4.32;;
33403;SDS011;19751;40.274;18.268;2023-05-10T08:03:42;3.90;;;3.55;;
33403;SDS011;19751;40.274;18.268;2023-05-10T08:06:07;6.18;;;3.13;;
33403;SDS011;19751;40.274;18.268;2023-05-10T08:08:33;5.18;;;4.05;;
33403;SDS011;19751;40.274;18.268;2023-05-10T08:10:58;6.18;;;4.35;;
33403;SDS011;19751;40.274;18.268;2023-05-10T08:13:23;5.07;;;3.45;;
33403;SDS011;19751;40.274;18.268;2023-05-10T08:15:49;4.18;;;3.55;;
33403;SDS011;19751;40.274;18.268;2023-05-10T08:18:17;5.35;;;4.18;;
33403;SDS011;19751;40.274;18.268;2023-05-10T08:20:43;4.45;;;4.05;;
33403;SDS011;19751;40.274;18.268;2023-05-10T08:23:08;4.55;;;3.58;;
33403;SDS011;19751;40.274;18.268;2023-05-10T08:25:34;6.10;;;4.15;;
33403;SDS011;19751;40.274;18.268;2023-05-10T08:27:59;4.00;;;3.50;;
33403;SDS011;19751;40.274;18.268;2023-05-10T08:30:25;8.48;;;4.35;;
33403;SDS011;19751;40.274;18.268;2023-05-10T08:32:52;7.32;;;3.92;;
33403;SDS011;19751;40.274;18.268;2023-05-10T08:35:17;4.57;;;3.65;;
33403;SDS011;19751;40.274;18.268;2023-05-10T08:37:43;6.65;;;4.00;;
33403;SDS011;19751;40.274;18.268;2023-05-10T08:40:08;4.40;;;4.00;;
33403;SDS011;19751;40.274;18.268;2023-05-10T08:42:36;5.97;;;4.35;;
33403;SDS011;19751;40.274;18.268;2023-05-10T08:45:06;6.13;;;3.25;;
33403;SDS011;19751;40.274;18.268;2023-05-10T08:47:33;5.28;;;3.80;;
33403;SDS011;19751;40.274;18.268;2023-05-10T08:50:01;7.00;;;4.63;;
33403;SDS011;19751;40.274;18.268;2023-05-10T08:52:28;9.07;;;4.18;;
33403;SDS011;19751;40.274;18.268;2023-05-10T08:54:55;5.38;;;3.97;;
33403;SDS011;19751;40.274;18.268;2023-05-10T08:57:21;4.72;;;4.30;;
33403;SDS011;19751;40.274;18.268;2023-05-10T08:59:47;8.75;;;4.10;;
33403;SDS011;19751;40.274;18.268;2023-05-10T09:02:13;6.32;;;4.07;;
33403;SDS011;19751;40.274;18.268;2023-05-10T09:04:39;5.05;;;4.38;;
33403;SDS011;19751;40.274;18.268;2023-05-10T09:07:05;5.35;;;3.95;;
33403;SDS011;19751;40.274;18.268;2023-05-10T09:09:32;4.68;;;3.67;;
33403;SDS011;19751;40.274;18.268;2023-05-10T09:11:59;5.10;;;4.60;;
33403;SDS011;19751;40.274;18.268;2023-05-10T09:14:25;6.57;;;4.32;;
33403;SDS011;19751;40.274;18.268;2023-05-10T09:16:51;7.38;;;5.63;;
33403;SDS011;19751;40.274;18.268;2023-05-10T09:19:20;6.57;;;5.88;;
33403;SDS011;19751;40.274;18.268;2023-05-10T09:21:45;7.47;;;4.40;;
33403;SDS011;19751;40.274;18.268;2023-05-10T09:24:11;9.13;;;4.57;;
33403;SDS011;19751;40.274;18.268;2023-05-10T09:26:45;5.57;;;4.25;;
33403;SDS011;19751;40.274;18.268;2023-05-10T09:29:13;5.18;;;4.63;;
33403;SDS011;19751;40.274;18.268;2023-05-10T09:31:48;5.07;;;4.57;;
33403;SDS011;19751;40.274;18.268;2023-05-10T09:34:31;13.23;;;4.82;;
33403;SDS011;19751;40.274;18.268;2023-05-10T09:37:00;11.18;;;4.38;;
33403;SDS011;19751;40.274;18.268;2023-05-10T09:39:31;7.70;;;3.97;;
33403;SDS011;19751;40.274;18.268;2023-05-10T09:41:58;5.55;;;4.20;;
33403;SDS011;19751;40.274;18.268;2023-05-10T09:44:25;6.68;;;3.72;;
33403;SDS011;19751;40.274;18.268;2023-05-10T09:46:51;6.10;;;4.15;;
33403;SDS011;19751;40.274;18.268;2023-05-10T09:49:18;6.18;;;3.72;;
33403;SDS011;19751;40.274;18.268;2023-05-10T09:51:44;4.70;;;3.47;;
33403;SDS011;19751;40.274;18.268;2023-05-10T09:54:14;6.05;;;3.58;;
33403;SDS011;19751;40.274;18.268;2023-05-10T09:56:41;6.13;;;3.03;;
33403;SDS011;19751;40.274;18.268;2023-05-10T09:59:10;4.90;;;3.45;;
33403;SDS011;19751;40.274;18.268;2023-05-10T10:01:37;4.97;;;3.17;;
33403;SDS011;19751;40.274;18.268;2023-05-10T10:04:04;4.55;;;3.55;;
33403;SDS011;19751;40.274;18.268;2023-05-10T10:06:37;7.40;;;3.58;;
33403;SDS011;19751;40.274;18.268;2023-05-10T10:09:04;4.40;;;3.17;;
33403;SDS011;19751;40.274;18.268;2023-05-10T10:11:34;3.83;;;3.03;;
33403;SDS011;19751;40.274;18.268;2023-05-10T10:14:01;5.50;;;3.83;;
33403;SDS011;19751;40.274;18.268;2023-05-10T10:16:28;4.88;;;2.58;;
33403;SDS011;19751;40.274;18.268;2023-05-10T10:18:55;4.72;;;2.30;;
33403;SDS011;19751;40.274;18.268;2023-05-10T10:21:21;5.20;;;3.08;;
33403;SDS011;19751;40.274;18.268;2023-05-10T10:23:47;3.95;;;3.20;;
33403;SDS011;19751;40.274;18.268;2023-05-10T10:26:13;13.30;;;3.50;;
33403;SDS011;19751;40.274;18.268;2023-05-10T10:29:01;14.38;;;2.90;;
33403;SDS011;19751;40.274;18.268;2023-05-10T10:32:10;4.88;;;2.92;;
33403;SDS011;19751;40.274;18.268;2023-05-10T10:35:11;7.97;;;3.20;;
33403;SDS011;19751;40.274;18.268;2023-05-10T10:37:44;20.10;;;3.40;;
33403;SDS011;19751;40.274;18.268;2023-05-10T10:40:23;4.38;;;3.05;;
33403;SDS011;19751;40.274;18.268;2023-05-10T10:42:56;6.72;;;2.88;;
33403;SDS011;19751;40.274;18.268;2023-05-10T10:45:25;6.47;;;2.67;;
33403;SDS011;19751;40.274;18.268;2023-05-10T10:50:55;6.90;;;3.63;;
33403;SDS011;19751;40.274;18.268;2023-05-10T10:53:21;5.13;;;2.58;;
33403;SDS011;19751;40.274;18.268;2023-05-10T10:55:47;3.83;;;3.10;;
33403;SDS011;19751;40.274;18.268;2023-05-10T10:58:31;5.95;;;2.65;;
33403;SDS011;19751;40.274;18.268;2023-05-10T11:01:11;3.35;;;2.42;;
33403;SDS011;19751;40.274;18.268;2023-05-10T11:03:41;4.28;;;2.63;;
33403;SDS011;19751;40.274;18.268;2023-05-10T11:06:39;5.18;;;3.10;;
33403;SDS011;19751;40.274;18.268;2023-05-10T11:09:06;3.75;;;2.70;;
33403;SDS011;19751;40.274;18.268;2023-05-10T11:11:32;4.55;;;2.55;;
33403;SDS011;19751;40.274;18.268;2023-05-10T11:14:03;4.10;;;2.88;;
33403;SDS011;19751;40.274;18.268;2023-05-10T11:16:40;4.85;;;2.90;;
33403;SDS011;19751;40.274;18.268;2023-05-10T11:19:13;5.22;;;3.00;;
33403;SDS011;19751;40.274;18.268;2023-05-10T11:21:46;4.38;;;2.80;;
33403;SDS011;19751;40.274;18.268;2023-05-10T11:24:30;4.53;;;2.50;;
33403;SDS011;19751;40.274;18.268;2023-05-10T11:26:56;3.65;;;2.83;;
33403;SDS011;19751;40.274;18.268;2023-05-10T11:29:22;4.93;;;3.03;;
33403;SDS011;19751;40.274;18.268;2023-05-10T11:31:48;6.03;;;2.67;;
33403;SDS011;19751;40.274;18.268;2023-05-10T11:34:30;2.83;;;2.63;;
33403;SDS011;19751;40.274;18.268;2023-05-10T11:37:00;3.80;;;2.78;;
33403;SDS011;19751;40.274;18.268;2023-05-10T11:39:26;4.75;;;3.22;;
33403;SDS011;19751;40.274;18.268;2023-05-10T11:41:53;3.08;;;2.45;;
33403;SDS011;19751;40.274;18.268;2023-05-10T11:44:18;4.55;;;2.80;;
33403;SDS011;19751;40.274;18.268;2023-05-10T11:46:44;5.45;;;2.95;;
33403;SDS011;19751;40.274;18.268;2023-05-10T11:49:09;5.68;;;3.45;;
33403;SDS011;19751;40.274;18.268;2023-05-10T11:51:36;7.60;;;3.33;;
33403;SDS011;19751;40.274;18.268;2023-05-10T11:54:05;5.40;;;3.70;;
33403;SDS011;19751;40.274;18.268;2023-05-10T11:56:33;6.20;;;3.15;;
33403;SDS011;19751;40.274;18.268;2023-05-10T11:58:59;4.25;;;3.22;;
33403;SDS011;19751;40.274;18.268;2023-05-10T12:01:27;2.90;;;2.60;;
33403;SDS011;19751;40.274;18.268;2023-05-10T12:03:54;3.13;;;2.83;;
33403;SDS011;19751;40.274;18.268;2023-05-10T12:06:31;2.70;;;2.50;;
33403;SDS011;19751;40.274;18.268;2023-05-10T12:09:05;2.67;;;2.35;;
33403;SDS011;19751;40.274;18.268;2023-05-10T12:11:32;5.55;;;3.08;;
33403;SDS011;19751;40.274;18.268;2023-05-10T12:14:03;2.97;;;2.63;;
33403;SDS011;19751;40.274;18.268;2023-05-10T12:16:30;5.60;;;2.20;;
33403;SDS011;19751;40.274;18.268;2023-05-10T12:18:56;6.57;;;2.53;;
33403;SDS011;19751;40.274;18.268;2023-05-10T12:21:24;3.05;;;2.30;;
33403;SDS011;19751;40.274;18.268;2023-05-10T12:23:51;3.67;;;2.42;;
33403;SDS011;19751;40.274;18.268;2023-05-10T12:26:18;4.65;;;2.75;;
33403;SDS011;19751;40.274;18.268;2023-05-10T12:28:47;5.30;;;2.40;;
33403;SDS011;19751;40.274;18.268;2023-05-10T12:31:12;4.40;;;2.85;;
33403;SDS011;19751;40.274;18.268;2023-05-10T12:33:41;4.97;;;2.60;;
33403;SDS011;19751;40.274;18.268;2023-05-10T12:36:09;4.55;;;2.83;;
33403;SDS011;19751;40.274;18.268;2023-05-10T12:38:39;4.90;;;3.47;;
33403;SDS011;19751;40.274;18.268;2023-05-10T12:41:12;4.68;;;3.38;;
33403;SDS011;19751;40.274;18.268;2023-05-10T12:43:42;3.97;;;3.22;;
33403;SDS011;19751;40.274;18.268;2023-05-10T12:46:09;3.58;;;2.30;;
33403;SDS011;19751;40.274;18.268;2023-05-10T12:48:39;4.95;;;2.83;;
33403;SDS011;19751;40.274;18.268;2023-05-10T12:51:06;4.25;;;2.80;;
33403;SDS011;19751;40.274;18.268;2023-05-10T12:53:37;3.20;;;2.40;;
33403;SDS011;19751;40.274;18.268;2023-05-10T12:56:03;4.80;;;2.47;;
33403;SDS011;19751;40.274;18.268;2023-05-10T12:58:29;3.72;;;2.42;;
33403;SDS011;19751;40.274;18.268;2023-05-10T13:00:54;3.03;;;2.20;;
33403;SDS011;19751;40.274;18.268;2023-05-10T13:05:56;10.73;;;3.28;;
33403;SDS011;19751;40.274;18.268;2023-05-10T13:08:22;2.97;;;2.50;;
33403;SDS011;19751;40.274;18.268;2023-05-10T13:10:48;5.13;;;2.58;;
33403;SDS011;19751;40.274;18.268;2023-05-10T13:13:13;4.30;;;2.25;;
33403;SDS011;19751;40.274;18.268;2023-05-10T13:15:39;4.55;;;2.95;;
33403;SDS011;19751;40.274;18.268;2023-05-10T13:18:05;3.60;;;2.95;;
33403;SDS011;19751;40.274;18.268;2023-05-10T13:20:30;8.15;;;3.88;;
33403;SDS011;19751;40.274;18.268;2023-05-10T13:22:56;4.20;;;3.65;;
33403;SDS011;19751;40.274;18.268;2023-05-10T13:25:21;3.83;;;3.25;;
33403;SDS011;19751;40.274;18.268;2023-05-10T13:27:47;5.88;;;4.10;;
33403;SDS011;19751;40.274;18.268;2023-05-10T13:30:12;6.35;;;3.88;;
33403;SDS011;19751;40.274;18.268;2023-05-10T13:32:38;4.80;;;3.05;;
33403;SDS011;19751;40.274;18.268;2023-05-10T13:35:03;5.50;;;3.22;;
33403;SDS011;19751;40.274;18.268;2023-05-10T13:37:30;5.43;;;3.15;;
33403;SDS011;19751;40.274;18.268;2023-05-10T13:39:56;4.22;;;2.70;;
33403;SDS011;19751;40.274;18.268;2023-05-10T13:42:22;5.80;;;2.50;;
33403;SDS011;19751;40.274;18.268;2023-05-10T13:44:48;3.40;;;2.72;;
33403;SDS011;19751;40.274;18.268;2023-05-10T13:47:14;5.30;;;3.10;;
33403;SDS011;19751;40.274;18.268;2023-05-10T13:49:40;5.22;;;4.07;;
33403;SDS011;19751;40.274;18.268;2023-05-10T13:52:05;5.15;;;3.25;;
33403;SDS011;19751;40.274;18.268;2023-05-10T13:54:37;4.93;;;2.92;;
33403;SDS011;19751;40.274;18.268;2023-05-10T13:57:03;2.97;;;2.47;;
33403;SDS011;19751;40.274;18.268;2023-05-10T13:59:29;6.05;;;3.00;;
33403;SDS011;19751;40.274;18.268;2023-05-10T14:01:56;5.78;;;2.65;;
33403;SDS011;19751;40.274;18.268;2023-05-10T14:04:23;4.75;;;2.75;;
33403;SDS011;19751;40.274;18.268;2023-05-10T14:06:48;3.38;;;3.08;;
33403;SDS011;19751;40.274;18.268;2023-05-10T14:09:14;4.55;;;2.80;;
33403;SDS011;19751;40.274;18.268;2023-05-10T14:11:39;11.57;;;3.15;;
33403;SDS011;19751;40.274;18.268;2023-05-10T14:14:08;6.72;;;3.28;;
33403;SDS011;19751;40.274;18.268;2023-05-10T14:16:37;4.88;;;2.53;;
33403;SDS011;19751;40.274;18.268;2023-05-10T14:19:03;5.43;;;3.13;;
33403;SDS011;19751;40.274;18.268;2023-05-10T14:21:28;4.45;;;2.60;;
33403;SDS011;19751;40.274;18.268;2023-05-10T14:23:56;4.03;;;2.42;;
33403;SDS011;19751;40.274;18.268;2023-05-10T14:26:22;4.97;;;2.40;;
33403;SDS011;19751;40.274;18.268;2023-05-10T14:28:48;2.55;;;2.20;;
33403;SDS011;19751;40.274;18.268;2023-05-10T14:31:13;5.63;;;2.70;;
33403;SDS011;19751;40.274;18.268;2023-05-10T14:33:39;2.90;;;2.15;;
33403;SDS011;19751;40.274;18.268;2023-05-10T14:36:05;5.03;;;2.60;;
33403;SDS011;19751;40.274;18.268;2023-05-10T14:38:31;2.67;;;2.40;;
33403;SDS011;19751;40.274;18.268;2023-05-10T14:40:57;4.47;;;2.55;;
33403;SDS011;19751;40.274;18.268;2023-05-10T14:43:22;2.78;;;2.53;;
33403;SDS011;19751;40.274;18.268;2023-05-10T14:45:48;2.72;;;2.53;;
33403;SDS011;19751;40.274;18.268;2023-05-10T14:48:13;3.15;;;2.40;;
33403;SDS011;19751;40.274;18.268;2023-05-10T14:50:42;4.20;;;2.58;;
33403;SDS011;19751;40.274;18.268;2023-05-10T14:53:08;2.65;;;2.20;;
33403;SDS011;19751;40.274;18.268;2023-05-10T14:55:33;5.65;;;2.90;;
33403;SDS011;19751;40.274;18.268;2023-05-10T14:58:00;3.08;;;2.78;;
33403;SDS011;19751;40.274;18.268;2023-05-10T15:00:26;2.90;;;2.63;;